Time;durP1;ratioP1;P1;durP2;ratioP2;P2;SDS_P1;SDS_P2;PMS_P1;PMS_P2;Temp;Humidity;BMP_temperature;BMP_pressure;BME280_temperature;BME280_humidity;BME280_pressure;Samples;Min_cycle;Max_cycle;Signal;HPM_P1;HPM_P2
2024/01/12 00:00:57;;;;;;;;;;;29.50;99.90;;;;;;5112691;28;19907;-66
2024/01/12 00:03:24;;;;;;;;;;;29.30;99.90;;;;;;5116220;28;19908;-66
2024/01/12 00:05:51;;;;;;;;;;;29.40;99.90;;;;;;5116162;28;19908;-67
2024/01/12 00:08:17;;;;;;;;;;;29.60;99.90;;;;;;5115659;28;19916;-65
2024/01/12 00:10:44;;;;;;;;;;;29.70;99.90;;;;;;5115992;28;19919;-69
2024/01/12 00:13:11;;;;;;;;;;;29.80;99.90;;;;;;5115973;28;19907;-68
2024/01/12 00:15:37;;;;;;;;;;;29.80;99.90;;;;;;5115965;28;20275;-67
2024/01/12 00:18:04;;;;;;;;;;;30.00;99.90;;;;;;5116049;28;19961;-67
2024/01/12 00:20:32;;;;;;;;;;;29.80;99.90;;;;;;5115556;28;19954;-67
2024/01/12 00:22:58;;;;;;;;;;;29.60;99.90;;;;;;5097209;28;19965;-65
2024/01/12 00:25:25;;;;;;;;;;;29.70;99.90;;;;;;5115984;28;19912;-66
2024/01/12 00:27:51;;;;;;;;;;;29.70;99.90;;;;;;5115688;28;19954;-66
2024/01/12 00:30:18;;;;;;;;;;;30.00;99.90;;;;;;5115459;28;19997;-67
2024/01/12 00:32:45;;;;;;;;;;;30.20;99.90;;;;;;5115580;28;19918;-69
2024/01/12 00:35:11;;;;;;;;;;;30.50;99.90;;;;;;5102239;28;19914;-71
2024/01/12 00:37:38;;;;;;;;;;;30.40;99.90;;;;;;5113940;28;19908;-71
2024/01/12 00:40:05;;;;;;;;;;;30.10;99.90;;;;;;5115002;28;19912;-72
2024/01/12 00:42:31;;;;;;;;;;;29.80;99.90;;;;;;5115373;28;19994;-67
2024/01/12 00:44:58;;;;;;;;;;;29.60;99.90;;;;;;5114984;28;19952;-68
2024/01/12 00:47:24;;;;;;;;;;;29.80;99.90;;;;;;5115022;28;19919;-70
2024/01/12 00:49:51;;;;;;;;;;;30.00;99.90;;;;;;5114788;28;19938;-73
2024/01/12 00:52:18;;;;;;;;;;;29.90;99.90;;;;;;5115046;28;20557;-75
2024/01/12 00:54:45;;;;;;;;;;;30.00;99.90;;;;;;5113946;28;19924;-74
2024/01/12 00:57:11;;;;;;;;;;;29.90;99.90;;;;;;5096799;28;19977;-74
2024/01/12 00:59:38;;;;;;;;;;;29.90;99.90;;;;;;5106980;28;20002;-72
2024/01/12 01:02:05;;;;;;;;;;;29.90;99.90;;;;;;5104111;28;19947;-72
2024/01/12 01:04:32;;;;;;;;;;;29.90;99.90;;;;;;5104590;28;19930;-70
2024/01/12 01:06:58;;;;;;;;;;;30.00;99.90;;;;;;5106056;28;19912;-75
2024/01/12 01:09:25;;;;;;;;;;;29.80;99.90;;;;;;5100947;28;19920;-74
2024/01/12 01:11:52;;;;;;;;;;;29.90;99.90;;;;;;5103566;28;19912;-75
2024/01/12 01:14:19;;;;;;;;;;;30.30;99.90;;;;;;5107210;28;19919;-71
2024/01/12 01:16:46;;;;;;;;;;;30.70;99.90;;;;;;5105168;28;20325;-77
2024/01/12 01:19:12;;;;;;;;;;;30.80;99.90;;;;;;5105352;28;20450;-78
2024/01/12 01:21:39;;;;;;;;;;;31.00;99.90;;;;;;5103414;28;19947;-70
2024/01/12 01:24:06;;;;;;;;;;;31.30;99.90;;;;;;5108948;28;20423;-71
2024/01/12 01:26:32;;;;;;;;;;;31.30;99.90;;;;;;5109145;28;19919;-76
2024/01/12 01:28:59;;;;;;;;;;;31.40;99.90;;;;;;5103101;28;19965;-70
2024/01/12 01:31:26;;;;;;;;;;;31.40;99.90;;;;;;5103359;28;20006;-70
2024/01/12 01:33:52;;;;;;;;;;;31.00;99.90;;;;;;5101967;28;20003;-77
2024/01/12 01:36:19;;;;;;;;;;;30.90;99.90;;;;;;5106020;28;20361;-82
2024/01/12 01:38:45;;;;;;;;;;;30.50;99.90;;;;;;5106001;28;19942;-76
2024/01/12 01:41:12;;;;;;;;;;;30.70;99.90;;;;;;5101459;27;19965;-72
2024/01/12 01:43:39;;;;;;;;;;;30.80;99.90;;;;;;5100487;28;19908;-72
2024/01/12 01:46:06;;;;;;;;;;;30.80;99.90;;;;;;5107088;27;19937;-73
2024/01/12 01:48:32;;;;;;;;;;;31.10;99.90;;;;;;5114024;28;19912;-73
2024/01/12 01:50:59;;;;;;;;;;;31.20;99.90;;;;;;5114013;28;19912;-70
2024/01/12 01:53:26;;;;;;;;;;;31.20;99.90;;;;;;5113679;28;19908;-73
2024/01/12 01:55:53;;;;;;;;;;;31.30;99.90;;;;;;5095441;27;19924;-72
2024/01/12 01:58:25;;;;;;;;;;;31.30;99.90;;;;;;5113973;28;19907;-79
2024/01/12 02:00:52;;;;;;;;;;;31.10;99.90;;;;;;5092424;28;20373;-72
2024/01/12 02:03:19;;;;;;;;;;;31.40;99.90;;;;;;5113868;28;19912;-76
2024/01/12 02:05:46;;;;;;;;;;;31.40;99.90;;;;;;5109476;28;20467;-71
2024/01/12 02:08:14;;;;;;;;;;;31.60;99.90;;;;;;5096307;28;20217;-78
2024/01/12 02:10:40;;;;;;;;;;;31.70;99.90;;;;;;5099316;28;20007;-78
2024/01/12 02:13:07;;;;;;;;;;;32.00;99.90;;;;;;5093795;28;19912;-76
2024/01/12 02:15:34;;;;;;;;;;;32.20;99.90;;;;;;5076026;28;19908;-76
2024/01/12 02:18:01;;;;;;;;;;;32.20;99.90;;;;;;5094347;28;20422;-76
2024/01/12 02:20:27;;;;;;;;;;;31.90;99.90;;;;;;5094885;28;19908;-84
2024/01/12 02:22:54;;;;;;;;;;;32.20;99.90;;;;;;5094293;28;20284;-76
2024/01/12 02:25:21;;;;;;;;;;;32.20;99.70;;;;;;5094323;28;19908;-78
2024/01/12 02:27:48;;;;;;;;;;;32.00;99.90;;;;;;5094058;28;19908;-75
2024/01/12 02:30:14;;;;;;;;;;;31.90;99.50;;;;;;5093895;28;20330;-72
2024/01/12 02:32:41;;;;;;;;;;;31.70;99.90;;;;;;5093789;28;19908;-73
2024/01/12 02:35:07;;;;;;;;;;;31.60;99.90;;;;;;5094055;28;19908;-76
2024/01/12 02:37:34;;;;;;;;;;;31.70;99.70;;;;;;5094056;28;19908;-74
2024/01/12 02:40:01;;;;;;;;;;;31.60;99.90;;;;;;5093784;28;20269;-78
2024/01/12 02:42:27;;;;;;;;;;;31.60;99.80;;;;;;5093855;28;19915;-76
2024/01/12 02:45:00;;;;;;;;;;;31.70;99.90;;;;;;5093630;28;19930;-77
2024/01/12 02:47:28;;;;;;;;;;;31.40;99.90;;;;;;5093585;28;19915;-75
2024/01/12 02:49:55;;;;;;;;;;;31.50;99.90;;;;;;5093355;28;20403;-72
2024/01/12 02:52:22;;;;;;;;;;;31.70;98.90;;;;;;5093409;28;19908;-72
2024/01/12 02:54:48;;;;;;;;;;;31.60;99.00;;;;;;5093268;28;19920;-74
2024/01/12 02:57:15;;;;;;;;;;;31.20;98.70;;;;;;5093393;28;20372;-75
2024/01/12 02:59:41;;;;;;;;;;;31.10;99.90;;;;;;5093130;28;19954;-75
2024/01/12 03:02:11;;;;;;;;;;;31.70;99.80;;;;;;5092858;28;19970;-76
2024/01/12 03:04:37;;;;;;;;;;;32.10;98.40;;;;;;5093307;28;19908;-77
2024/01/12 03:07:04;;;;;;;;;;;32.30;97.20;;;;;;5093171;28;19908;-72
2024/01/12 03:09:31;;;;;;;;;;;32.70;96.40;;;;;;5093291;28;20023;-71
2024/01/12 03:11:57;;;;;;;;;;;32.60;96.30;;;;;;5093089;28;20011;-74
2024/01/12 03:14:24;;;;;;;;;;;33.00;95.80;;;;;;5093120;28;19915;-75
2024/01/12 03:16:50;;;;;;;;;;;33.30;95.90;;;;;;5093303;28;19915;-79
2024/01/12 03:19:20;;;;;;;;;;;34.30;95.60;;;;;;5093151;28;20004;-75
2024/01/12 03:21:46;;;;;;;;;;;34.60;94.50;;;;;;5093195;28;19916;-74
2024/01/12 03:24:13;;;;;;;;;;;34.60;94.60;;;;;;5092988;28;19915;-74
2024/01/12 03:26:39;;;;;;;;;;;35.50;94.10;;;;;;5093139;28;19908;-74
2024/01/12 03:29:06;;;;;;;;;;;36.00;91.50;;;;;;5092758;28;20254;-73
2024/01/12 03:31:33;;;;;;;;;;;36.20;93.30;;;;;;5093096;28;19908;-72
2024/01/12 03:34:00;;;;;;;;;;;37.50;91.30;;;;;;5092907;28;19912;-72
2024/01/12 03:36:27;;;;;;;;;;;38.20;88.90;;;;;;5092234;28;19915;-69
2024/01/12 03:38:54;;;;;;;;;;;37.80;88.20;;;;;;5092742;28;19908;-70
2024/01/12 03:41:21;;;;;;;;;;;36.20;87.20;;;;;;5093055;28;20352;-79
2024/01/12 03:43:48;;;;;;;;;;;35.90;90.10;;;;;;5092717;28;20337;-77
2024/01/12 03:46:14;;;;;;;;;;;36.00;84.70;;;;;;5092831;28;20003;-72
2024/01/12 03:48:41;;;;;;;;;;;36.10;86.50;;;;;;5092578;28;19938;-73
2024/01/12 03:51:08;;;;;;;;;;;35.80;88.00;;;;;;5093040;28;20284;-73
2024/01/12 03:53:35;;;;;;;;;;;36.60;87.50;;;;;;5092837;28;19908;-71
2024/01/12 03:56:01;;;;;;;;;;;37.20;85.40;;;;;;5092580;28;20412;-74
2024/01/12 03:58:29;;;;;;;;;;;37.60;85.70;;;;;;5092707;28;19909;-70
2024/01/12 04:00:56;;;;;;;;;;;36.10;87.50;;;;;;5092713;28;19913;-72
2024/01/12 04:03:22;;;;;;;;;;;35.70;89.10;;;;;;5092541;28;20358;-75
2024/01/12 04:05:49;;;;;;;;;;;36.20;89.50;;;;;;5092783;28;19912;-70
2024/01/12 04:08:15;;;;;;;;;;;36.10;88.50;;;;;;5092629;28;20407;-70
2024/01/12 04:10:42;;;;;;;;;;;36.10;88.00;;;;;;5092460;28;19915;-72
2024/01/12 04:13:10;;;;;;;;;;;36.40;89.40;;;;;;5092435;28;19908;-74
2024/01/12 04:15:37;;;;;;;;;;;36.60;89.90;;;;;;5093254;28;19912;-72
2024/01/12 04:18:05;;;;;;;;;;;36.30;87.90;;;;;;5092755;28;20320;-70
2024/01/12 04:20:31;;;;;;;;;;;35.20;90.40;;;;;;5074394;28;19908;-73
2024/01/12 04:22:58;;;;;;;;;;;35.80;90.60;;;;;;5092601;28;20602;-72
2024/01/12 04:25:24;;;;;;;;;;;36.40;89.80;;;;;;5092633;28;19916;-77
2024/01/12 04:27:51;;;;;;;;;;;36.20;90.00;;;;;;5092802;28;20310;-73
2024/01/12 04:30:18;;;;;;;;;;;36.10;90.50;;;;;;5092625;28;19912;-77
2024/01/12 04:32:44;;;;;;;;;;;36.00;90.10;;;;;;5092236;28;19908;-71
2024/01/12 04:35:11;;;;;;;;;;;37.30;89.80;;;;;;5092473;28;19908;-73
2024/01/12 04:37:39;;;;;;;;;;;37.70;89.30;;;;;;5074524;28;19914;-73
2024/01/12 04:40:06;;;;;;;;;;;38.80;86.30;;;;;;5092371;28;19952;-75
2024/01/12 04:42:33;;;;;;;;;;;36.70;88.80;;;;;;5092620;28;19909;-73
2024/01/12 04:45:00;;;;;;;;;;;36.80;89.90;;;;;;5092228;28;20018;-75
2024/01/12 04:47:26;;;;;;;;;;;36.30;90.40;;;;;;5093791;28;19933;-71
2024/01/12 04:49:53;;;;;;;;;;;36.10;89.80;;;;;;5095823;28;19916;-73
2024/01/12 04:52:20;;;;;;;;;;;36.70;90.10;;;;;;5096012;28;19912;-76
2024/01/12 04:54:46;;;;;;;;;;;37.20;89.80;;;;;;5095594;28;19935;-72
2024/01/12 04:57:13;;;;;;;;;;;37.10;89.30;;;;;;5096001;28;20432;-71
2024/01/12 04:59:40;;;;;;;;;;;37.70;88.10;;;;;;5095715;28;19916;-71
2024/01/12 05:02:07;;;;;;;;;;;37.50;87.00;;;;;;5095467;28;19969;-74
2024/01/12 05:04:33;;;;;;;;;;;36.00;90.40;;;;;;5095321;28;19915;-73
2024/01/12 05:07:00;;;;;;;;;;;36.50;89.50;;;;;;5095547;28;19915;-71
2024/01/12 05:09:27;;;;;;;;;;;36.50;90.00;;;;;;5095607;28;19919;-72
2024/01/12 05:11:53;;;;;;;;;;;35.90;90.60;;;;;;5095348;28;20361;-77
2024/01/12 05:14:20;;;;;;;;;;;36.40;90.20;;;;;;5095408;28;19970;-72
2024/01/12 05:16:46;;;;;;;;;;;37.00;89.70;;;;;;5094946;28;19908;-73
2024/01/12 05:19:13;;;;;;;;;;;37.10;87.40;;;;;;5094931;28;19908;-75
2024/01/12 05:21:40;;;;;;;;;;;36.60;89.80;;;;;;5095223;28;20258;-71
2024/01/12 05:24:06;;;;;;;;;;;36.40;89.50;;;;;;5094810;28;19908;-72
2024/01/12 05:26:34;;;;;;;;;;;36.60;90.20;;;;;;5095247;28;20002;-80
2024/01/12 05:29:01;;;;;;;;;;;37.20;88.00;;;;;;5094911;28;19923;-73
2024/01/12 05:31:28;;;;;;;;;;;35.40;89.80;;;;;;5094634;28;20376;-71
2024/01/12 05:33:54;;;;;;;;;;;35.20;90.80;;;;;;5094742;28;19946;-78
2024/01/12 05:36:22;;;;;;;;;;;35.50;91.00;;;;;;5094859;28;20160;-73
2024/01/12 05:38:48;;;;;;;;;;;36.50;89.90;;;;;;5094522;28;19995;-72
2024/01/12 05:41:15;;;;;;;;;;;36.40;89.90;;;;;;5094844;28;20060;-75
2024/01/12 05:43:41;;;;;;;;;;;36.90;89.20;;;;;;5094970;28;19908;-76
2024/01/12 05:46:08;;;;;;;;;;;36.40;89.10;;;;;;5094788;28;19954;-73
2024/01/12 05:48:35;;;;;;;;;;;36.60;90.40;;;;;;5094850;28;20284;-76
2024/01/12 05:51:01;;;;;;;;;;;36.10;89.60;;;;;;5094845;28;20365;-74
2024/01/12 05:53:28;;;;;;;;;;;36.10;90.70;;;;;;5094641;28;19962;-73
2024/01/12 05:55:55;;;;;;;;;;;35.80;90.50;;;;;;5094176;28;20014;-73
2024/01/12 05:58:21;;;;;;;;;;;35.60;90.80;;;;;;5093644;28;19919;-74
2024/01/12 06:00:48;;;;;;;;;;;35.30;91.00;;;;;;5094201;28;20422;-73
2024/01/12 06:03:15;;;;;;;;;;;35.20;91.10;;;;;;5094222;28;19908;-71
2024/01/12 06:05:42;;;;;;;;;;;35.30;91.40;;;;;;5094319;28;19908;-73
2024/01/12 06:08:08;;;;;;;;;;;35.30;91.20;;;;;;5093969;28;19908;-74
2024/01/12 06:10:35;;;;;;;;;;;34.50;92.10;;;;;;5094379;28;19969;-78
2024/01/12 06:13:02;;;;;;;;;;;34.80;91.50;;;;;;5094155;28;19909;-73
2024/01/12 06:15:28;;;;;;;;;;;34.50;92.20;;;;;;5094113;28;20359;-71
2024/01/12 06:17:57;;;;;;;;;;;33.90;92.90;;;;;;5094116;28;19908;-77
2024/01/12 06:20:24;;;;;;;;;;;33.80;93.50;;;;;;5094359;28;19912;-72
2024/01/12 06:22:50;;;;;;;;;;;33.50;92.80;;;;;;5094158;28;19908;-71
2024/01/12 06:25:17;;;;;;;;;;;33.00;94.00;;;;;;5094009;28;20391;-73
2024/01/12 06:27:44;;;;;;;;;;;33.00;94.10;;;;;;5093979;28;19915;-73
2024/01/12 06:30:10;;;;;;;;;;;32.00;95.00;;;;;;5094122;28;19916;-79
2024/01/12 06:32:38;;;;;;;;;;;31.80;96.30;;;;;;5093587;28;19912;-72
2024/01/12 06:35:08;;;;;;;;;;;32.10;96.00;;;;;;5093702;28;19908;-72
2024/01/12 06:37:34;;;;;;;;;;;32.40;95.40;;;;;;5094017;28;19908;-73
2024/01/12 06:40:01;;;;;;;;;;;31.40;95.50;;;;;;5093603;28;19908;-75
2024/01/12 06:42:30;;;;;;;;;;;31.00;97.10;;;;;;5093496;28;19958;-77
2024/01/12 06:44:57;;;;;;;;;;;31.00;97.00;;;;;;5093650;28;20007;-71
2024/01/12 06:47:24;;;;;;;;;;;30.90;97.20;;;;;;5093665;28;19969;-76
2024/01/12 06:49:50;;;;;;;;;;;31.00;97.40;;;;;;5093384;28;20355;-71
2024/01/12 06:52:17;;;;;;;;;;;31.10;97.10;;;;;;5093437;28;19908;-74
2024/01/12 06:54:44;;;;;;;;;;;31.40;97.30;;;;;;5093034;28;19919;-72
2024/01/12 06:57:11;;;;;;;;;;;31.70;96.60;;;;;;5093442;28;19998;-72
2024/01/12 06:59:38;;;;;;;;;;;32.00;96.10;;;;;;5093257;28;19913;-73
2024/01/12 07:02:04;;;;;;;;;;;31.90;96.00;;;;;;5093180;28;19908;-77
2024/01/12 07:04:31;;;;;;;;;;;31.90;96.10;;;;;;5093554;28;19954;-77
2024/01/12 07:06:58;;;;;;;;;;;31.40;97.50;;;;;;5093189;28;19968;-75
2024/01/12 07:09:25;;;;;;;;;;;31.50;97.10;;;;;;5092901;28;19916;-71
2024/01/12 07:11:53;;;;;;;;;;;31.60;96.80;;;;;;5093145;28;19908;-73
2024/01/12 07:14:20;;;;;;;;;;;31.30;96.70;;;;;;5093135;28;19916;-76
2024/01/12 07:16:46;;;;;;;;;;;31.10;97.20;;;;;;5092971;28;20045;-74
2024/01/12 07:19:13;;;;;;;;;;;30.80;97.30;;;;;;5093123;28;19908;-72
2024/01/12 07:21:40;;;;;;;;;;;30.30;98.10;;;;;;5092890;28;19908;-75
2024/01/12 07:24:07;;;;;;;;;;;30.00;99.10;;;;;;5093005;28;19908;-73
2024/01/12 07:26:33;;;;;;;;;;;30.00;98.70;;;;;;5093130;28;20407;-75
2024/01/12 07:29:00;;;;;;;;;;;30.00;98.80;;;;;;5092801;28;19956;-75
2024/01/12 07:31:27;;;;;;;;;;;29.90;99.40;;;;;;5092637;28;20331;-77
2024/01/12 07:33:54;;;;;;;;;;;30.20;99.20;;;;;;5092542;28;19962;-75
2024/01/12 07:36:20;;;;;;;;;;;30.40;98.70;;;;;;5092732;28;19915;-79
2024/01/12 07:38:47;;;;;;;;;;;30.40;98.60;;;;;;5092769;28;20353;-78
2024/01/12 07:41:14;;;;;;;;;;;30.50;98.40;;;;;;5092857;28;19962;-72
2024/01/12 07:43:40;;;;;;;;;;;30.50;98.40;;;;;;5092794;28;20414;-74
2024/01/12 07:46:07;;;;;;;;;;;30.40;98.80;;;;;;5093072;28;19916;-73
2024/01/12 07:48:33;;;;;;;;;;;29.90;99.00;;;;;;5092905;28;19938;-78
2024/01/12 07:51:00;;;;;;;;;;;29.60;99.60;;;;;;5092659;28;19916;-75
2024/01/12 07:53:27;;;;;;;;;;;29.60;99.60;;;;;;5092599;28;19909;-75
2024/01/12 07:55:54;;;;;;;;;;;29.40;99.30;;;;;;5092582;28;20023;-73
2024/01/12 07:58:20;;;;;;;;;;;29.20;99.90;;;;;;5092707;28;19908;-73
2024/01/12 08:00:47;;;;;;;;;;;29.10;99.90;;;;;;5092389;28;19908;-76
2024/01/12 08:03:14;;;;;;;;;;;29.20;99.90;;;;;;5091982;28;19933;-74
2024/01/12 08:05:41;;;;;;;;;;;29.20;99.90;;;;;;5098747;28;19912;-74
2024/01/12 08:08:07;;;;;;;;;;;29.20;99.90;;;;;;5092175;28;19908;-72
2024/01/12 08:10:35;;;;;;;;;;;29.00;99.90;;;;;;5098297;28;20004;-69
2024/01/12 08:13:04;;;;;;;;;;;28.80;99.90;;;;;;5102251;28;19912;-78
2024/01/12 08:15:30;;;;;;;;;;;28.60;99.90;;;;;;5102798;28;19908;-73
2024/01/12 08:17:57;;;;;;;;;;;28.40;99.90;;;;;;5100308;28;19914;-68
2024/01/12 08:20:24;;;;;;;;;;;28.30;99.90;;;;;;5101548;28;19998;-69
2024/01/12 08:22:50;;;;;;;;;;;28.20;99.90;;;;;;5104651;28;19908;-72
2024/01/12 08:25:17;;;;;;;;;;;28.20;99.90;;;;;;5106841;28;20011;-72
2024/01/12 08:27:44;;;;;;;;;;;28.00;99.90;;;;;;5112097;28;19931;-70
2024/01/12 08:30:10;;;;;;;;;;;27.60;99.90;;;;;;5110296;28;19924;-71
2024/01/12 08:32:37;;;;;;;;;;;27.60;99.90;;;;;;5107501;27;19951;-71
2024/01/12 08:35:04;;;;;;;;;;;27.50;99.90;;;;;;5114760;28;19908;-70
2024/01/12 08:37:30;;;;;;;;;;;27.30;99.90;;;;;;5116037;28;19908;-71
2024/01/12 08:39:57;;;;;;;;;;;27.30;99.90;;;;;;5099587;28;19912;-71
2024/01/12 08:42:24;;;;;;;;;;;27.20;99.90;;;;;;5114292;28;20061;-75
2024/01/12 08:44:51;;;;;;;;;;;27.10;99.90;;;;;;5111671;28;20345;-72
2024/01/12 08:47:21;;;;;;;;;;;27.20;99.90;;;;;;5104671;28;20372;-73
2024/01/12 08:49:47;;;;;;;;;;;27.20;99.90;;;;;;5103582;28;19920;-73
2024/01/12 08:52:14;;;;;;;;;;;27.20;99.90;;;;;;5105797;28;19908;-71
2024/01/12 08:54:42;;;;;;;;;;;27.00;99.90;;;;;;5104049;28;20254;-71
2024/01/12 08:57:08;;;;;;;;;;;27.00;99.90;;;;;;5105567;28;20033;-71
2024/01/12 08:59:35;;;;;;;;;;;27.10;99.90;;;;;;5104519;28;20056;-69
2024/01/12 09:02:01;;;;;;;;;;;26.90;99.90;;;;;;5114397;28;19912;-74
2024/01/12 09:04:28;;;;;;;;;;;26.80;99.90;;;;;;5115462;28;19923;-71
2024/01/12 09:06:55;;;;;;;;;;;26.80;99.90;;;;;;5099518;28;20280;-72
2024/01/12 09:09:21;;;;;;;;;;;26.80;99.90;;;;;;5103392;28;19927;-71
2024/01/12 09:11:48;;;;;;;;;;;26.70;99.90;;;;;;5103902;28;19930;-70
2024/01/12 09:14:14;;;;;;;;;;;26.70;99.90;;;;;;5105730;28;19915;-71
2024/01/12 09:16:41;;;;;;;;;;;26.60;99.90;;;;;;5104647;28;19908;-73
2024/01/12 09:19:08;;;;;;;;;;;26.50;99.90;;;;;;5103598;28;19955;-70
2024/01/12 09:21:34;;;;;;;;;;;26.50;99.90;;;;;;5105884;28;20010;-72
2024/01/12 09:24:01;;;;;;;;;;;26.40;99.90;;;;;;5104544;28;19908;-69
2024/01/12 09:26:27;;;;;;;;;;;26.40;99.90;;;;;;5103933;28;19907;-67
2024/01/12 09:28:54;;;;;;;;;;;26.50;99.90;;;;;;5103895;28;19966;-71
2024/01/12 09:31:21;;;;;;;;;;;26.60;99.90;;;;;;5104557;28;19962;-67
2024/01/12 09:33:47;;;;;;;;;;;26.50;99.90;;;;;;5103659;28;19908;-69
2024/01/12 09:36:14;;;;;;;;;;;26.30;99.90;;;;;;5102745;28;19912;-68
2024/01/12 09:38:40;;;;;;;;;;;26.30;99.90;;;;;;5109001;28;19907;-70
2024/01/12 09:41:09;;;;;;;;;;;26.20;99.90;;;;;;5103895;28;19912;-69
2024/01/12 09:43:36;;;;;;;;;;;26.20;99.90;;;;;;5105047;28;19958;-69
2024/01/12 09:46:06;;;;;;;;;;;26.20;99.90;;;;;;5103969;28;19915;-69
2024/01/12 09:48:34;;;;;;;;;;;26.10;99.90;;;;;;5104682;28;19920;-68
2024/01/12 09:51:01;;;;;;;;;;;26.10;99.90;;;;;;5103288;28;20349;-67
2024/01/12 09:53:28;;;;;;;;;;;26.10;99.90;;;;;;5102104;28;19909;-70
2024/01/12 09:55:54;;;;;;;;;;;26.00;99.90;;;;;;5095383;28;19920;-69
2024/01/12 09:58:22;;;;;;;;;;;25.90;99.90;;;;;;5103516;28;20048;-72
2024/01/12 10:00:50;;;;;;;;;;;25.80;99.90;;;;;;5100058;28;19923;-68
2024/01/12 10:03:17;;;;;;;;;;;25.80;99.90;;;;;;5100907;28;19916;-71
2024/01/12 10:05:46;;;;;;;;;;;25.80;99.90;;;;;;5108056;28;20324;-70
2024/01/12 10:08:13;;;;;;;;;;;25.80;99.90;;;;;;5101944;28;19973;-66
2024/01/12 10:10:40;;;;;;;;;;;25.70;99.90;;;;;;5093370;28;20280;-69
2024/01/12 10:13:07;;;;;;;;;;;25.80;99.90;;;;;;5096246;28;19959;-67
2024/01/12 10:15:42;;;;;;;;;;;25.80;99.90;;;;;;5113800;28;20499;-67
2024/01/12 10:18:09;;;;;;;;;;;25.80;99.90;;;;;;5113530;28;20348;-66
2024/01/12 10:20:36;;;;;;;;;;;25.70;99.90;;;;;;5113695;28;19908;-68
2024/01/12 10:23:03;;;;;;;;;;;25.80;99.90;;;;;;5107823;28;19995;-70
2024/01/12 10:25:30;;;;;;;;;;;25.80;99.90;;;;;;5101947;28;19908;-68
2024/01/12 10:27:57;;;;;;;;;;;25.90;99.90;;;;;;5113291;28;19908;-67
2024/01/12 10:30:24;;;;;;;;;;;25.90;99.90;;;;;;5100221;28;20422;-67
2024/01/12 10:32:51;;;;;;;;;;;25.90;99.90;;;;;;5113656;28;19953;-66
2024/01/12 10:35:21;;;;;;;;;;;25.80;99.90;;;;;;5113526;28;20006;-67
2024/01/12 10:37:48;;;;;;;;;;;25.70;99.90;;;;;;5113196;28;19907;-67
2024/01/12 10:40:19;;;;;;;;;;;25.70;99.90;;;;;;5104023;28;19923;-67
2024/01/12 10:42:48;;;;;;;;;;;25.70;99.90;;;;;;5093959;28;20338;-67
2024/01/12 10:45:25;;;;;;;;;;;25.70;99.90;;;;;;5093671;28;19908;-67
2024/01/12 10:47:59;;;;;;;;;;;25.70;99.90;;;;;;5112745;28;19908;-67
2024/01/12 10:50:27;;;;;;;;;;;25.70;99.90;;;;;;5096072;28;19969;-69
2024/01/12 10:53:02;;;;;;;;;;;25.70;99.90;;;;;;5092655;28;19974;-67
2024/01/12 10:55:33;;;;;;;;;;;25.60;99.90;;;;;;5092418;28;19920;-67
2024/01/12 10:58:02;;;;;;;;;;;25.50;99.90;;;;;;5099951;28;19918;-69
2024/01/12 11:00:32;;;;;;;;;;;25.60;99.90;;;;;;5096896;28;19962;-68
2024/01/12 11:03:00;;;;;;;;;;;25.70;99.90;;;;;;5097384;28;20002;-68
2024/01/12 11:05:31;;;;;;;;;;;25.70;99.90;;;;;;5112495;28;19912;-70
2024/01/12 11:08:00;;;;;;;;;;;25.80;99.90;;;;;;5112681;28;19907;-67
2024/01/12 11:10:30;;;;;;;;;;;25.80;99.90;;;;;;5111022;28;19920;-69
2024/01/12 11:12:57;;;;;;;;;;;25.90;99.90;;;;;;5110480;28;19912;-67
2024/01/12 11:15:24;;;;;;;;;;;25.90;99.90;;;;;;5112381;28;19912;-67
2024/01/12 11:17:51;;;;;;;;;;;26.00;99.90;;;;;;5112105;28;20388;-68
2024/01/12 11:20:21;;;;;;;;;;;26.00;99.90;;;;;;5107997;28;19920;-68
2024/01/12 11:22:49;;;;;;;;;;;26.00;99.90;;;;;;5110523;28;19996;-66
2024/01/12 11:25:16;;;;;;;;;;;26.00;99.90;;;;;;5112316;28;20311;-69
2024/01/12 11:27:47;;;;;;;;;;;25.90;99.90;;;;;;5112036;28;20321;-69
2024/01/12 11:30:16;;;;;;;;;;;25.80;99.90;;;;;;5107139;28;19923;-70
2024/01/12 11:32:43;;;;;;;;;;;25.90;99.90;;;;;;5106466;28;20364;-68
2024/01/12 11:35:11;;;;;;;;;;;25.90;99.90;;;;;;5110561;28;20375;-68
2024/01/12 11:37:38;;;;;;;;;;;26.00;99.90;;;;;;5106649;28;19955;-72
2024/01/12 11:40:07;;;;;;;;;;;25.90;99.90;;;;;;5103175;28;20364;-69
2024/01/12 11:42:35;;;;;;;;;;;25.80;99.90;;;;;;5093995;28;19999;-69
2024/01/12 11:45:02;;;;;;;;;;;25.90;99.90;;;;;;5111533;28;19920;-69
2024/01/12 11:47:29;;;;;;;;;;;25.80;99.90;;;;;;5112137;28;20007;-70
2024/01/12 11:49:56;;;;;;;;;;;25.80;99.90;;;;;;5105396;28;19927;-71
2024/01/12 11:52:22;;;;;;;;;;;25.80;99.90;;;;;;5111326;28;19912;-74
2024/01/12 11:54:49;;;;;;;;;;;25.70;99.90;;;;;;5112083;28;19920;-68
2024/01/12 11:57:16;;;;;;;;;;;25.80;99.90;;;;;;5113072;28;19919;-67
2024/01/12 11:59:43;;;;;;;;;;;25.70;99.90;;;;;;5099708;28;19915;-70
2024/01/12 12:02:10;;;;;;;;;;;25.60;99.90;;;;;;5096168;28;19908;-68
2024/01/12 12:04:37;;;;;;;;;;;25.50;99.90;;;;;;5103388;28;19913;-70
2024/01/12 12:07:03;;;;;;;;;;;25.50;99.90;;;;;;5099652;28;19908;-71
2024/01/12 12:09:30;;;;;;;;;;;25.50;99.90;;;;;;5096269;28;19943;-67
2024/01/12 12:11:57;;;;;;;;;;;25.40;99.90;;;;;;5111186;28;19908;-68
2024/01/12 12:14:24;;;;;;;;;;;25.30;99.90;;;;;;5116406;28;20280;-73
2024/01/12 12:16:51;;;;;;;;;;;25.30;99.90;;;;;;5116736;28;19965;-72
2024/01/12 12:19:18;;;;;;;;;;;25.20;99.90;;;;;;5104825;28;20268;-72
2024/01/12 12:21:46;;;;;;;;;;;25.20;99.90;;;;;;5096213;28;20365;-72
2024/01/12 12:24:12;;;;;;;;;;;25.20;99.90;;;;;;5106132;28;19920;-71
2024/01/12 12:26:41;;;;;;;;;;;25.10;99.90;;;;;;5116192;28;19912;-70
2024/01/12 12:29:09;;;;;;;;;;;25.10;99.90;;;;;;5115989;28;19927;-66
2024/01/12 12:31:42;;;;;;;;;;;25.20;99.90;;;;;;5115866;28;19916;-69
2024/01/12 12:34:08;;;;;;;;;;;25.20;99.90;;;;;;5116293;28;19955;-68
2024/01/12 12:36:35;;;;;;;;;;;25.20;99.90;;;;;;5116311;28;19953;-70
2024/01/12 12:39:04;;;;;;;;;;;25.10;99.90;;;;;;5115591;28;19911;-69
2024/01/12 12:41:31;;;;;;;;;;;25.10;99.90;;;;;;5116340;28;19907;-68
2024/01/12 12:43:58;;;;;;;;;;;25.20;99.90;;;;;;5115787;28;20388;-67
2024/01/12 12:46:27;;;;;;;;;;;25.10;99.90;;;;;;5116269;28;19907;-70
2024/01/12 12:48:57;;;;;;;;;;;25.10;99.90;;;;;;5114264;28;19916;-67
2024/01/12 12:51:24;;;;;;;;;;;25.10;99.90;;;;;;5115291;28;19920;-71
2024/01/12 12:53:50;;;;;;;;;;;25.10;99.90;;;;;;5115394;28;19907;-71
2024/01/12 12:56:17;;;;;;;;;;;25.10;99.90;;;;;;5115481;28;19919;-71
2024/01/12 12:58:43;;;;;;;;;;;25.10;99.90;;;;;;5115207;28;19972;-72
2024/01/12 13:01:10;;;;;;;;;;;25.10;99.90;;;;;;5115682;28;19908;-68
2024/01/12 13:03:37;;;;;;;;;;;25.10;99.90;;;;;;5115818;28;19908;-68
2024/01/12 13:06:04;;;;;;;;;;;25.10;99.90;;;;;;5115678;28;20443;-73
2024/01/12 13:08:30;;;;;;;;;;;25.00;99.90;;;;;;5097184;28;19969;-69
2024/01/12 13:10:57;;;;;;;;;;;25.00;99.90;;;;;;5095028;28;20391;-73
2024/01/12 13:13:24;;;;;;;;;;;25.00;99.90;;;;;;5094585;28;20375;-69
2024/01/12 13:15:50;;;;;;;;;;;24.90;99.90;;;;;;5102589;28;19912;-73
2024/01/12 13:18:17;;;;;;;;;;;25.00;99.90;;;;;;5115247;28;19915;-69
2024/01/12 13:20:46;;;;;;;;;;;24.90;99.90;;;;;;5115143;28;19919;-72
2024/01/12 13:23:12;;;;;;;;;;;25.00;99.90;;;;;;5114663;28;19943;-71
2024/01/12 13:25:39;;;;;;;;;;;24.90;99.90;;;;;;5115413;28;19908;-68
2024/01/12 13:28:05;;;;;;;;;;;24.90;99.90;;;;;;5115313;28;19916;-72
2024/01/12 13:30:32;;;;;;;;;;;24.90;99.90;;;;;;5114131;28;20347;-67
2024/01/12 13:32:59;;;;;;;;;;;24.90;99.90;;;;;;5114871;28;20018;-71
2024/01/12 13:35:26;;;;;;;;;;;24.90;99.90;;;;;;5115108;28;19912;-66
2024/01/12 13:37:53;;;;;;;;;;;24.90;99.90;;;;;;5115137;28;20360;-68
2024/01/12 13:40:20;;;;;;;;;;;24.80;99.90;;;;;;5114860;28;20245;-69
2024/01/12 13:42:49;;;;;;;;;;;24.80;99.90;;;;;;5114839;28;20026;-72
2024/01/12 13:45:15;;;;;;;;;;;24.80;99.90;;;;;;5114947;28;19908;-69
2024/01/12 13:47:42;;;;;;;;;;;24.80;99.90;;;;;;5115075;28;19908;-71
2024/01/12 13:50:09;;;;;;;;;;;24.80;99.90;;;;;;5114702;28;19920;-73
2024/01/12 13:52:36;;;;;;;;;;;24.80;99.90;;;;;;5115202;28;19908;-69
2024/01/12 13:55:03;;;;;;;;;;;24.80;99.90;;;;;;5114477;28;19919;-70
2024/01/12 13:57:29;;;;;;;;;;;24.70;99.90;;;;;;5096507;28;20253;-67
2024/01/12 13:59:56;;;;;;;;;;;24.70;99.90;;;;;;5114496;28;19912;-67
2024/01/12 14:02:23;;;;;;;;;;;24.60;99.90;;;;;;5114558;28;19915;-68
2024/01/12 14:04:49;;;;;;;;;;;24.60;99.90;;;;;;5114567;28;20296;-70
2024/01/12 14:07:16;;;;;;;;;;;24.60;99.90;;;;;;5114683;28;19907;-71
2024/01/12 14:09:43;;;;;;;;;;;24.60;99.90;;;;;;5114063;28;19923;-71
2024/01/12 14:12:09;;;;;;;;;;;24.60;99.90;;;;;;5114492;28;19908;-68
2024/01/12 14:14:36;;;;;;;;;;;24.50;99.90;;;;;;5114121;28;20407;-70